Meteo Giornale » Osservazioni meteo Italia » Firenze-Peretola

ore: 23:50 - Osservazioni Meteo Firenze-Peretola
Lat. 43° 48' N Lon. 11° 12' E Alt. 40 metri s.l.m.

sereno Europe/Rome

8 °C

Sereno

Temp. 24 Ore

8 °C

16 °C

Nord

3.7 Km/h

Dew point -5 °C

Umidità 39 %

Visibilità  10 Km

Il sole sorge alle ore 07:02

Il sole tramonta alle ore 19:37

Data e Ora Cielo e Fenomeni T °C DP °C Um. % Pres. hPa Vis. km Vento km/h
Ieri h: 23:50 sereno Sereno 8 -5 39 1024 10 N 3.7
Ieri h: 23:20 sereno Sereno 9 -4 39 1024 10 N 7.4
Ieri h: 22:50 sereno Sereno 9 -5 36 1024 10 E 13
Ieri h: 22:20 sereno Sereno 9 -5 36 1024 10 SE 7.4
Ieri h: 21:50 sereno Sereno 10 -5 34 1024 10 N 3.7
Ieri h: 21:20 sereno Sereno 11 -7 27 1024 10 N/NE 9.3
Ieri h: 20:50 sereno Sereno 11 -5 32 1023 10 N/NE 14.8
Ieri h: 20:20 sereno Sereno 11 -5 32 1023 10 N/NE 13
Ieri h: 19:50 sereno Sereno 11 -5 32 1023 10 N/NE 13
Ieri h: 19:20 sereno Sereno 13 -5 28 1023 10 N/NE 18.5
Ieri h: 18:50 sereno Sereno 13 -3 32 1023 10 NE 16.7
Ieri h: 18:20 sereno Sereno 14 -3 30 1022 10 NE 16.7
Ieri h: 17:50 sereno Sereno 14 -3 30 1022 10 NE 18.5
Ieri h: 17:20 sereno Sereno 14 -3 30 1022 10 N/NE 22.2
Ieri h: 16:50 sereno Sereno 15 -2 30 1022 10 N/NE 20.3
Ieri h: 16:20 sereno Sereno 16 -2 29 1022 10 NE 24
Ieri h: 15:50 sereno Sereno 16 -3 26 1022 10 NE 20.3
Ieri h: 15:20 sereno Sereno 16 -1 31 1022 10 NE 22.2
Ieri h: 14:50 sereno Sereno 16 -1 31 1022 10 N/NE 22.2
Ieri h: 14:20 poco_nuvoloso Poco Nuvoloso 16 -2 29 1023 10 NE 22.2
Ieri h: 13:50 poco_nuvoloso Poco Nuvoloso 15 -1 33 1023 10 N/NE 22.2
Ieri h: 13:20 poco_nuvoloso Poco Nuvoloso 15 -1 33 1023 10 N 22.2
Ieri h: 12:50 poco_nuvoloso Poco Nuvoloso 15 -1 33 1023 10 N/NE 20.3
Ieri h: 12:20 sereno Sereno 15 0 35 1023 10 E/NE 24
Ieri h: 11:50 sereno Sereno 14 0 38 1023 10 NE 18.5
Ieri h: 11:20 sereno Sereno 13 -1 37 1023 10 NE 29.6
Ieri h: 10:50 sereno Sereno 13 -1 37 1023 10 NE 27.8
Ieri h: 10:20 sereno Sereno 12 -0 43 1023 10 N/NE 20.3
Ieri h: 09:50 poco_nuvoloso Poco Nuvoloso 11 0 46 1023 10 N/NE 20.3
Ieri h: 09:20 poco_nuvoloso Poco Nuvoloso 11 1 50 1023 10 N/NE 18.5
Ieri h: 08:50 poco_nuvoloso Poco Nuvoloso 10 1 53 1023 10 N/NE 20.3
Ieri h: 08:20 sereno Sereno 10 0 49 1023 10 N 9.3
Ieri h: 07:50 sereno Sereno 9 0 53 1023 10 N 7.4
Ieri h: 07:20 sereno Sereno 8 -0 56 1023 10 N 5.5
Ieri h: 06:50 sereno Sereno 8 -1 52 1023 10 N 5.5
Ieri h: 06:20 sereno Sereno 8 -1 52 1023 10 N 5.5
Ieri h: 05:50 sereno Sereno 9 -1 49 1022 10 N 5.5
Ieri h: 05:20 sereno Sereno 9 -1 49 1022 10 N 7.4
Ieri h: 04:50 sereno Sereno 9 -1 49 1022 10 N 9.3
Ieri h: 04:20 sereno Sereno 9 -1 49 1022 10 N/NE 7.4
Ieri h: 03:50 sereno Sereno 9 -1 49 1022 10 N 9.3
Ieri h: 03:20 sereno Sereno 9 -0 53 1022 10 N 9.3
Ieri h: 02:50 sereno Sereno 10 0 49 1022 10 N 18.5
Ieri h: 02:20 sereno Sereno 10 2 57 1021 10 N/NE 13
Ieri h: 00:50 poco_nuvoloso Poco Nuvoloso 10 5 71 1021 10 N 5.5
Ieri h: 00:20 nuvoloso Nuvoloso 11 5 66 1021 10 N 7.4